createdAt,value
2023-02-22T00:00:28.137Z,72.67
2023-02-22T00:01:21.960Z,71.00
2023-02-22T00:02:25.457Z,69.00
2023-02-22T00:03:04.607Z,64.67
2023-02-22T00:03:43.489Z,58.00
2023-02-22T00:04:23.511Z,56.00
2023-02-22T00:05:05.645Z,56.00
2023-02-22T00:05:47.469Z,56.33
2023-02-22T00:06:26.508Z,57.67
2023-02-22T00:07:06.291Z,57.67
2023-02-22T00:07:48.009Z,55.67
2023-02-22T00:08:30.555Z,51.33
2023-02-22T00:09:10.473Z,46.67
2023-02-22T00:09:52.443Z,45.33
2023-02-22T00:10:34.921Z,51.00
2023-02-22T00:11:14.470Z,52.00
2023-02-22T00:11:54.607Z,52.00
2023-02-22T00:12:57.882Z,51.67
2023-02-22T00:13:39.210Z,51.00
2023-02-22T00:14:20.560Z,51.00
2023-02-22T00:15:10.224Z,51.00
2023-02-22T00:15:58.102Z,51.00
2023-02-22T00:16:39.078Z,53.33
2023-02-22T00:17:18.144Z,57.33
2023-02-22T00:17:58.820Z,60.33
2023-02-22T00:20:06.936Z,76.67
2023-02-22T00:20:49.533Z,88.33
2023-02-22T00:21:31.217Z,87.67
2023-02-22T00:22:13.541Z,91.67
2023-02-22T00:22:55.767Z,82.33
2023-02-22T00:24:25.436Z,74.33
2023-02-22T00:25:07.875Z,63.00
2023-02-22T00:25:50.833Z,62.33
2023-02-22T00:27:54.419Z,60.33
2023-02-22T00:28:57.756Z,72.67
2023-02-22T00:29:40.244Z,108.00
2023-02-22T00:30:27.994Z,130.00
2023-02-22T00:31:07.269Z,178.33
2023-02-22T00:31:46.608Z,200.67
2023-02-22T00:32:28.574Z,221.00
2023-02-22T00:33:08.776Z,226.67
2023-02-22T00:34:58.043Z,235.67
2023-02-22T00:36:56.775Z,223.00
2023-02-22T00:38:16.182Z,240.67
2023-02-22T00:38:55.789Z,241.00
2023-02-22T00:39:34.525Z,238.33
2023-02-22T00:40:18.059Z,220.00
2023-02-22T00:41:00.519Z,204.00
2023-02-22T00:41:39.594Z,195.67
2023-02-22T00:42:19.834Z,194.00
2023-02-22T00:43:02.005Z,199.33
2023-02-22T00:43:44.646Z,197.67
2023-02-22T00:44:23.961Z,196.67
2023-02-22T00:45:06.006Z,196.00
2023-02-22T00:47:06.599Z,193.00
2023-02-22T00:47:48.425Z,198.00
2023-02-22T00:48:28.563Z,207.00
2023-02-22T00:49:16.920Z,216.33
2023-02-22T00:49:57.184Z,231.67
2023-02-22T00:50:37.177Z,226.67
2023-02-22T00:51:16.875Z,228.00
2023-02-22T00:52:21.251Z,232.33
2023-02-22T00:53:40.046Z,222.33
2023-02-22T00:55:47.378Z,224.33
2023-02-22T00:56:32.753Z,228.33
2023-02-22T00:57:51.453Z,236.67
2023-02-22T00:58:30.548Z,241.67
2023-02-22T00:59:09.650Z,248.67
2023-02-22T00:59:56.537Z,255.00
2023-02-22T01:00:41.801Z,261.33
2023-02-22T01:01:20.899Z,270.67
2023-02-22T01:02:01.666Z,275.33
2023-02-22T01:03:21.283Z,272.67
2023-02-22T01:04:41.599Z,278.33
2023-02-22T01:05:44.996Z,282.33
2023-02-22T01:06:29.392Z,278.33
2023-02-22T01:07:09.055Z,272.33
2023-02-22T01:07:50.616Z,277.67
2023-02-22T01:09:16.431Z,276.67
2023-02-22T01:09:55.621Z,274.00
2023-02-22T01:10:38.048Z,277.33
2023-02-22T01:11:18.241Z,276.00
2023-02-22T01:12:05.538Z,263.67
2023-02-22T01:12:46.879Z,241.67
2023-02-22T01:14:09.779Z,228.33
2023-02-22T01:14:48.614Z,227.33
2023-02-22T01:15:35.564Z,219.33
2023-02-22T01:22:37.595Z,66.00
2023-02-22T01:23:17.754Z,90.33
2023-02-22T01:23:57.882Z,105.67
2023-02-22T01:25:58.787Z,96.67
2023-02-22T01:26:38.087Z,100.33
2023-02-22T01:27:18.356Z,99.67
2023-02-22T01:28:08.130Z,97.33
2023-02-22T01:28:47.744Z,101.33
2023-02-22T01:29:26.797Z,98.67
2023-02-22T01:30:12.611Z,102.00
2023-02-22T01:30:52.709Z,101.33
2023-02-22T01:31:35.019Z,97.33
2023-02-22T01:32:16.865Z,97.67
2023-02-22T01:32:56.183Z,102.67
2023-02-22T01:33:36.835Z,103.33
2023-02-22T01:34:17.611Z,101.00
2023-02-22T01:34:57.714Z,104.00
2023-02-22T01:35:42.461Z,106.67
2023-02-22T01:36:22.610Z,109.67
2023-02-22T01:37:03.063Z,98.67
2023-02-22T01:37:43.637Z,98.67
2023-02-22T01:38:22.904Z,100.67
2023-02-22T01:39:01.827Z,99.67
2023-02-22T01:39:45.181Z,100.67
2023-02-22T01:40:34.139Z,100.33
2023-02-22T01:41:18.616Z,102.67
2023-02-22T01:41:59.020Z,101.33
2023-02-22T01:42:38.790Z,100.33
2023-02-22T01:43:30.974Z,100.67
2023-02-22T01:44:11.335Z,99.33
2023-02-22T01:44:50.509Z,99.67
2023-02-22T01:45:40.973Z,100.00
2023-02-22T01:46:27.875Z,101.00
2023-02-22T01:47:09.204Z,101.33
2023-02-22T01:47:48.808Z,101.00
2023-02-22T01:48:33.226Z,101.33
2023-02-22T01:49:21.277Z,101.00
2023-02-22T01:50:03.818Z,101.00
2023-02-22T01:50:54.407Z,100.67
2023-02-22T01:51:44.518Z,100.33
2023-02-22T01:52:23.788Z,102.33
2023-02-22T01:53:05.187Z,102.00
2023-02-22T01:53:51.594Z,102.00
2023-02-22T01:54:43.042Z,102.00
2023-02-22T01:55:25.939Z,101.67
2023-02-22T01:56:05.290Z,101.00
2023-02-22T01:57:01.024Z,101.00
2023-02-22T01:58:45.764Z,100.33
2023-02-22T01:59:25.379Z,100.00
2023-02-22T02:00:14.938Z,100.67
2023-02-22T02:01:38.109Z,105.00
2023-02-22T02:02:43.005Z,104.00
2023-02-22T02:04:12.019Z,102.00
2023-02-22T02:04:51.391Z,101.00
2023-02-22T02:05:34.357Z,101.00
2023-02-22T02:06:56.530Z,101.33
2023-02-22T02:08:56.862Z,102.00
2023-02-22T02:10:15.693Z,100.67
2023-02-22T02:10:58.102Z,98.33
2023-02-22T02:11:41.670Z,96.33
2023-02-22T02:12:25.102Z,95.00
2023-02-22T02:13:05.955Z,95.33
2023-02-22T02:13:44.839Z,96.33
2023-02-22T02:14:24.794Z,96.00
2023-02-22T02:15:29.019Z,92.00
2023-02-22T02:16:09.361Z,91.00
2023-02-22T02:16:52.103Z,95.00
2023-02-22T02:17:32.269Z,109.00
2023-02-22T02:18:13.826Z,108.33
2023-02-22T02:19:01.700Z,107.33
2023-02-22T02:20:12.973Z,108.00
2023-02-22T02:21:20.984Z,107.00
2023-02-22T02:22:00.383Z,106.00
2023-02-22T02:23:01.419Z,105.00
2023-02-22T02:24:40.462Z,103.00
2023-02-22T02:27:03.155Z,91.33
2023-02-22T02:27:42.375Z,90.00
2023-02-22T02:28:53.616Z,90.00
2023-02-22T02:30:37.777Z,91.67
2023-02-22T02:32:13.261Z,90.67
2023-02-22T02:32:53.386Z,93.00
2023-02-22T02:33:58.503Z,80.67
2023-02-22T02:35:06.913Z,61.00
2023-02-22T02:35:53.439Z,116.33
2023-02-22T02:36:47.853Z,126.00
2023-02-22T02:37:43.982Z,119.67
2023-02-22T02:38:48.179Z,136.33
2023-02-22T02:39:35.901Z,119.67
2023-02-22T02:41:39.959Z,109.33
2023-02-22T02:42:19.503Z,100.00
2023-02-22T02:43:37.223Z,91.33
2023-02-22T02:44:16.960Z,78.33
2023-02-22T02:45:49.610Z,112.33
2023-02-22T02:47:17.613Z,72.67
2023-02-22T02:48:02.664Z,67.33
2023-02-22T02:48:54.807Z,59.33
2023-02-22T02:49:44.272Z,61.67
2023-02-22T02:50:33.776Z,68.67
2023-02-22T02:51:16.738Z,72.67
2023-02-22T02:51:58.588Z,87.67
2023-02-22T02:52:41.574Z,88.67
2023-02-22T02:53:31.556Z,89.33
2023-02-22T02:54:19.756Z,89.00
2023-02-22T02:55:03.127Z,78.33
2023-02-22T02:56:32.681Z,79.33
2023-02-22T02:57:22.039Z,84.67
2023-02-22T02:58:01.809Z,86.00
2023-02-22T02:59:23.608Z,88.00
2023-02-22T03:00:03.457Z,89.33
2023-02-22T03:00:43.217Z,91.33
2023-02-22T03:02:25.447Z,98.67
2023-02-22T03:03:55.634Z,127.00
2023-02-22T03:05:16.159Z,169.00
2023-02-22T03:05:55.364Z,145.33
2023-02-22T03:06:53.399Z,143.00
2023-02-22T03:07:43.007Z,143.00
2023-02-22T03:08:43.204Z,139.33
2023-02-22T03:09:45.136Z,133.00
2023-02-22T03:10:53.830Z,130.00
2023-02-22T03:12:33.049Z,101.67
2023-02-22T03:13:39.516Z,96.00
2023-02-22T03:15:24.947Z,100.00
2023-02-22T03:16:03.467Z,102.00
2023-02-22T03:16:50.588Z,102.00
2023-02-22T03:17:55.512Z,102.00
2023-02-22T03:18:53.917Z,102.33
2023-02-22T03:19:56.999Z,101.33
2023-02-22T03:20:44.154Z,103.00
2023-02-22T03:21:42.803Z,108.00
2023-02-22T03:22:21.435Z,112.00
2023-02-22T03:23:30.841Z,112.00
2023-02-22T03:24:55.647Z,121.33
2023-02-22T03:25:41.812Z,130.33
2023-02-22T03:26:28.089Z,131.00
2023-02-22T03:27:22.464Z,129.00
2023-02-22T03:28:02.474Z,126.67
2023-02-22T03:28:41.520Z,126.00
2023-02-22T03:29:44.395Z,125.00
2023-02-22T03:30:32.206Z,122.67
2023-02-22T03:32:16.947Z,122.67
2023-02-22T03:33:52.576Z,123.00
2023-02-22T03:34:32.555Z,126.67
2023-02-22T03:35:23.473Z,134.67
2023-02-22T03:38:07.438Z,155.67
2023-02-22T03:38:47.598Z,150.33
2023-02-22T03:39:42.072Z,151.33
2023-02-22T03:40:32.943Z,150.00
2023-02-22T03:41:19.036Z,151.33
2023-02-22T03:42:07.002Z,161.00
2023-02-22T03:42:56.846Z,208.67
2023-02-22T03:43:43.076Z,188.00
2023-02-22T03:44:29.344Z,180.33
2023-02-22T03:45:15.648Z,173.00
2023-02-22T03:46:00.215Z,170.33
2023-02-22T03:47:37.928Z,158.00
2023-02-22T03:49:09.074Z,149.67
2023-02-22T03:50:08.629Z,165.00
2023-02-22T03:50:51.239Z,181.33
2023-02-22T03:51:30.571Z,174.33
2023-02-22T03:52:10.031Z,172.00
2023-02-22T03:52:49.244Z,170.00
2023-02-22T03:53:34.403Z,171.67
2023-02-22T03:54:39.101Z,171.67
2023-02-22T03:55:59.433Z,170.00
2023-02-22T03:56:51.755Z,168.00
2023-02-22T03:58:15.074Z,168.67
2023-02-22T03:58:57.146Z,183.67
2023-02-22T03:59:37.173Z,190.33
2023-02-22T04:00:26.170Z,191.33
2023-02-22T04:01:08.851Z,190.67
2023-02-22T04:01:51.118Z,194.67
2023-02-22T04:02:32.477Z,193.33
2023-02-22T04:05:10.027Z,186.33
2023-02-22T04:05:50.476Z,186.33
2023-02-22T04:06:34.229Z,196.00
2023-02-22T04:07:13.557Z,202.67
2023-02-22T04:07:56.071Z,204.33
2023-02-22T04:09:14.785Z,196.67
2023-02-22T04:09:53.831Z,194.00
2023-02-22T04:10:33.679Z,190.00
2023-02-22T04:11:13.933Z,188.00
2023-02-22T04:12:00.822Z,187.00
2023-02-22T04:12:42.845Z,188.00
2023-02-22T04:13:23.061Z,194.67
2023-02-22T04:14:43.842Z,200.33
2023-02-22T04:15:47.448Z,203.33
2023-02-22T04:17:04.856Z,214.00
2023-02-22T04:18:32.938Z,211.67
2023-02-22T04:19:11.807Z,218.67
2023-02-22T04:19:51.457Z,217.00
2023-02-22T04:20:31.806Z,212.67
2023-02-22T04:21:10.919Z,211.67
2023-02-22T04:21:49.833Z,211.00
2023-02-22T04:22:30.542Z,212.00
2023-02-22T04:23:11.618Z,210.33
2023-02-22T04:23:50.661Z,208.00
2023-02-22T04:24:30.656Z,200.67
2023-02-22T04:25:11.036Z,200.67
2023-02-22T04:25:49.821Z,206.00
2023-02-22T04:26:29.922Z,222.33
2023-02-22T04:27:10.115Z,231.00
2023-02-22T04:27:51.160Z,239.67
2023-02-22T04:28:40.783Z,236.67
2023-02-22T04:30:00.803Z,242.67
2023-02-22T04:30:40.139Z,246.67
2023-02-22T04:31:21.082Z,239.00
2023-02-22T04:32:42.344Z,257.33
2023-02-22T04:33:22.460Z,258.33
2023-02-22T04:34:06.810Z,267.00
2023-02-22T04:35:36.811Z,279.00
2023-02-22T04:37:37.285Z,364.67
2023-02-22T04:38:56.824Z,294.33
2023-02-22T04:39:44.829Z,310.67
2023-02-22T04:41:03.040Z,340.33
2023-02-22T04:41:47.619Z,353.00
2023-02-22T04:43:04.898Z,345.00
2023-02-22T04:43:52.034Z,358.33
2023-02-22T04:44:40.752Z,388.67
2023-02-22T04:45:23.139Z,397.33
2023-02-22T04:46:12.017Z,409.67
2023-02-22T04:46:52.678Z,409.00
2023-02-22T04:47:33.913Z,397.00
2023-02-22T04:48:15.985Z,393.00
2023-02-22T04:49:19.551Z,380.00
2023-02-22T04:49:59.434Z,443.00
2023-02-22T04:50:40.810Z,445.00
2023-02-22T04:51:21.309Z,452.67
2023-02-22T04:52:04.458Z,447.00
2023-02-22T04:52:43.605Z,443.00
2023-02-22T04:53:24.531Z,436.67
2023-02-22T04:54:54.889Z,423.33
2023-02-22T04:55:37.019Z,435.00
2023-02-22T04:56:17.504Z,414.00
2023-02-22T04:57:55.256Z,407.00
2023-02-22T04:59:13.475Z,379.00
2023-02-22T05:01:17.555Z,355.33
2023-02-22T05:01:57.861Z,342.33
2023-02-22T05:02:41.153Z,337.00
2023-02-22T05:04:03.424Z,331.67
2023-02-22T05:04:44.960Z,318.67
2023-02-22T05:05:25.086Z,317.33
2023-02-22T05:06:05.879Z,324.00
2023-02-22T05:06:46.194Z,319.67
2023-02-22T05:07:35.504Z,321.67
2023-02-22T05:08:15.902Z,298.33
2023-02-22T05:08:55.953Z,290.67
2023-02-22T05:09:35.646Z,278.67
2023-02-22T05:10:15.967Z,262.33
2023-02-22T05:11:02.801Z,261.33
2023-02-22T05:11:52.271Z,262.67
2023-02-22T05:12:44.465Z,276.67
2023-02-22T05:13:23.912Z,262.67
2023-02-22T05:14:06.068Z,256.33
2023-02-22T05:14:47.897Z,253.00
2023-02-22T05:15:28.421Z,246.67
2023-02-22T05:16:08.142Z,246.00
2023-02-22T05:16:50.513Z,213.00
2023-02-22T05:17:29.882Z,226.00
2023-02-22T05:18:12.570Z,234.67
2023-02-22T05:18:52.549Z,240.67
2023-02-22T05:19:56.480Z,241.33
2023-02-22T05:21:21.964Z,240.33
2023-02-22T05:22:08.722Z,231.33
2023-02-22T05:22:47.921Z,232.00
2023-02-22T05:23:28.087Z,239.67
2023-02-22T05:24:53.720Z,254.00
2023-02-22T05:25:37.470Z,273.33
2023-02-22T05:26:26.826Z,271.67
2023-02-22T05:27:05.945Z,263.67
2023-02-22T05:27:50.211Z,252.33
2023-02-22T05:29:27.982Z,272.33
2023-02-22T05:30:09.351Z,304.67
2023-02-22T05:30:48.896Z,315.67
2023-02-22T05:32:08.915Z,338.67
2023-02-22T05:32:47.840Z,346.00
2023-02-22T05:34:10.456Z,330.00
2023-02-22T05:34:50.497Z,329.33
2023-02-22T05:35:30.869Z,315.00
2023-02-22T05:36:11.191Z,312.67
2023-02-22T05:36:50.875Z,331.67
2023-02-22T05:37:32.916Z,349.67
2023-02-22T05:38:15.355Z,367.67
2023-02-22T05:38:56.661Z,367.67
2023-02-22T05:39:46.755Z,379.00
2023-02-22T05:41:30.786Z,404.67
2023-02-22T05:42:51.207Z,417.67
2023-02-22T05:44:08.892Z,447.33
2023-02-22T05:44:47.906Z,459.00
2023-02-22T05:45:29.102Z,460.67
2023-02-22T05:46:08.310Z,457.00
2023-02-22T05:46:48.097Z,454.00
2023-02-22T05:47:29.906Z,445.33
2023-02-22T05:48:09.321Z,433.33
2023-02-22T05:48:50.055Z,430.33
2023-02-22T05:50:10.621Z,452.00
2023-02-22T05:50:51.150Z,457.00
2023-02-22T05:52:10.883Z,444.67
2023-02-22T05:52:54.823Z,444.00
2023-02-22T05:53:58.775Z,442.00
2023-02-22T05:56:52.091Z,434.33
2023-02-22T05:57:34.190Z,433.67
2023-02-22T05:59:17.341Z,429.67
2023-02-22T06:01:14.920Z,410.67
2023-02-22T06:01:54.930Z,415.67
2023-02-22T06:03:00.173Z,435.33
2023-02-22T06:04:20.696Z,437.67
2023-02-22T06:06:43.876Z,440.67
2023-02-22T06:08:14.597Z,466.00
2023-02-22T06:08:55.310Z,479.33
2023-02-22T06:09:35.092Z,478.33
2023-02-22T06:10:17.135Z,468.00
2023-02-22T06:10:58.846Z,471.67
2023-02-22T06:12:02.495Z,475.67
2023-02-22T06:13:21.484Z,469.00
2023-02-22T06:14:05.113Z,465.00
2023-02-22T06:16:08.456Z,448.33
2023-02-22T06:18:31.755Z,444.00
2023-02-22T06:20:14.039Z,445.67
2023-02-22T06:21:35.867Z,438.67
2023-02-22T06:22:20.239Z,450.00
2023-02-22T06:24:31.044Z,475.33
2023-02-22T06:25:16.814Z,477.67
2023-02-22T06:26:54.572Z,480.67
2023-02-22T06:28:55.285Z,483.00
2023-02-22T06:30:24.641Z,485.67
2023-02-22T06:31:28.441Z,486.00
2023-02-22T06:32:54.513Z,485.67
2023-02-22T06:33:36.854Z,483.33
2023-02-22T06:34:24.792Z,482.00
2023-02-22T06:35:05.684Z,479.33
2023-02-22T06:35:45.465Z,476.67
2023-02-22T06:36:26.288Z,473.00
2023-02-22T06:39:06.102Z,443.67
2023-02-22T06:40:25.536Z,447.33
2023-02-22T06:41:09.987Z,451.00
2023-02-22T06:42:49.847Z,458.67
2023-02-22T06:43:37.729Z,470.00
2023-02-22T06:45:24.624Z,480.67
2023-02-22T06:46:03.691Z,479.67
2023-02-22T06:46:51.274Z,479.00
2023-02-22T06:47:31.841Z,478.33
2023-02-22T06:48:12.583Z,477.67
2023-02-22T06:48:52.261Z,476.00
2023-02-22T06:49:34.998Z,472.00
2023-02-22T06:50:25.119Z,466.33
2023-02-22T06:51:29.073Z,454.67
2023-02-22T06:52:09.667Z,442.67
2023-02-22T06:53:13.548Z,448.33
2023-02-22T06:54:32.649Z,437.00
2023-02-22T06:56:30.914Z,449.67
2023-02-22T06:57:10.319Z,457.00
2023-02-22T06:57:51.828Z,462.67
2023-02-22T06:58:32.012Z,465.67
2023-02-22T06:59:11.052Z,471.00
2023-02-22T07:00:32.686Z,483.00
2023-02-22T07:01:13.539Z,487.00
2023-02-22T07:01:54.563Z,488.67
2023-02-22T07:02:35.373Z,486.67
2023-02-22T07:03:54.383Z,483.33
2023-02-22T07:05:15.863Z,481.00
2023-02-22T07:06:02.807Z,480.00
2023-02-22T07:06:49.466Z,478.33
2023-02-22T07:07:31.981Z,476.00
2023-02-22T07:08:18.759Z,472.00
2023-02-22T07:08:57.896Z,461.67
2023-02-22T07:09:46.387Z,450.67
2023-02-22T07:10:31.313Z,449.00
2023-02-22T07:11:16.346Z,449.67
2023-02-22T07:11:56.290Z,451.00
2023-02-22T07:12:38.902Z,441.00
2023-02-22T07:13:17.961Z,446.00
2023-02-22T07:14:06.923Z,450.67
2023-02-22T07:14:46.170Z,464.33
2023-02-22T07:15:29.897Z,467.67
2023-02-22T07:16:17.076Z,468.33
2023-02-22T07:16:58.877Z,469.00
2023-02-22T07:18:02.612Z,469.00
2023-02-22T07:18:44.359Z,469.67
2023-02-22T07:19:33.724Z,470.00
2023-02-22T07:20:14.170Z,469.00
2023-02-22T07:20:54.420Z,463.67
2023-02-22T07:21:42.804Z,462.33
2023-02-22T07:22:22.048Z,458.67
2023-02-22T07:23:01.438Z,449.33
2023-02-22T07:23:41.163Z,438.67
2023-02-22T07:24:47.978Z,433.33
2023-02-22T07:25:28.449Z,422.33
2023-02-22T07:26:46.904Z,419.67
2023-02-22T07:27:29.026Z,429.00
2023-02-22T07:28:11.810Z,427.67
2023-02-22T07:28:51.713Z,412.33
2023-02-22T07:29:33.587Z,414.33
2023-02-22T07:30:52.280Z,387.00
2023-02-22T07:32:11.984Z,461.00
2023-02-22T07:32:52.584Z,493.33
2023-02-22T07:33:32.900Z,498.67
2023-02-22T07:34:13.204Z,497.33
2023-02-22T07:34:53.222Z,490.33
2023-02-22T07:35:39.281Z,485.67
2023-02-22T07:36:19.951Z,474.33
2023-02-22T07:37:01.973Z,474.00
2023-02-22T07:37:40.862Z,471.67
2023-02-22T07:38:20.662Z,470.00
2023-02-22T07:38:59.998Z,469.33
2023-02-22T07:39:43.682Z,468.33
2023-02-22T07:41:11.672Z,419.67
2023-02-22T07:41:51.157Z,425.33
2023-02-22T07:42:52.821Z,430.00
2023-02-22T07:43:33.137Z,429.00
2023-02-22T07:44:13.090Z,425.33
2023-02-22T07:44:53.354Z,430.67
2023-02-22T07:45:33.622Z,422.33
2023-02-22T07:46:14.149Z,425.67
2023-02-22T07:47:38.864Z,427.67
2023-02-22T07:49:07.655Z,427.00
2023-02-22T07:50:32.452Z,471.67
2023-02-22T07:51:14.994Z,496.67
2023-02-22T07:52:47.174Z,495.00
2023-02-22T07:53:52.601Z,486.00
2023-02-22T07:55:17.673Z,473.67
2023-02-22T07:56:02.334Z,472.00
2023-02-22T07:56:49.349Z,466.67
2023-02-22T07:58:37.303Z,432.67
2023-02-22T07:59:33.954Z,438.67
2023-02-22T08:00:23.849Z,439.67
2023-02-22T08:01:27.481Z,440.33
2023-02-22T08:02:08.065Z,428.00
2023-02-22T08:03:01.903Z,411.33
2023-02-22T08:03:43.714Z,397.67
2023-02-22T08:05:15.207Z,402.67
2023-02-22T08:06:21.165Z,434.00
2023-02-22T08:09:04.873Z,485.33
2023-02-22T08:09:43.692Z,474.67
2023-02-22T08:10:31.821Z,467.33
2023-02-22T08:11:13.947Z,460.00
2023-02-22T08:11:53.127Z,443.33
2023-02-22T08:12:56.312Z,425.00
2023-02-22T08:14:22.770Z,413.67
2023-02-22T08:15:08.737Z,433.33
2023-02-22T08:16:28.663Z,492.33
2023-02-22T08:17:09.814Z,496.33
2023-02-22T08:21:02.889Z,478.00
2023-02-22T08:21:41.011Z,439.33
2023-02-22T08:22:21.968Z,405.33
2023-02-22T08:23:01.294Z,382.00
2023-02-22T08:23:42.966Z,370.00
2023-02-22T08:26:20.884Z,305.00
2023-02-22T08:27:15.002Z,300.67
2023-02-22T08:28:20.116Z,292.00
2023-02-22T08:29:41.046Z,227.00
2023-02-22T08:30:23.741Z,232.33
2023-02-22T08:31:03.408Z,253.33
2023-02-22T08:31:43.018Z,263.67
2023-02-22T08:32:24.184Z,251.33
2023-02-22T08:33:06.441Z,225.33
2023-02-22T08:33:56.023Z,241.67
2023-02-22T08:34:39.621Z,240.33
2023-02-22T08:35:29.539Z,251.67
2023-02-22T08:36:12.136Z,229.67
2023-02-22T08:36:51.011Z,212.00
2023-02-22T08:37:47.197Z,200.00
2023-02-22T08:38:30.838Z,198.67
2023-02-22T08:39:12.975Z,191.67
2023-02-22T08:39:56.274Z,213.33
2023-02-22T08:40:39.026Z,245.33
2023-02-22T08:41:19.293Z,220.33
2023-02-22T08:42:10.394Z,209.33
2023-02-22T08:43:01.934Z,198.67
2023-02-22T08:44:05.617Z,169.00
2023-02-22T08:44:45.760Z,195.67
2023-02-22T08:45:30.497Z,200.33
2023-02-22T08:46:09.933Z,216.00
2023-02-22T08:47:02.086Z,195.00
2023-02-22T08:47:42.766Z,167.33
2023-02-22T08:48:25.493Z,152.67
2023-02-22T08:53:20.183Z,156.67
2023-02-22T08:54:00.208Z,159.00
2023-02-22T08:57:03.129Z,394.67
2023-02-22T08:58:29.634Z,448.00
2023-02-22T09:00:30.856Z,384.00
2023-02-22T09:02:33.110Z,267.33
2023-02-22T09:03:15.445Z,219.67
2023-02-22T09:05:26.454Z,175.33
2023-02-22T09:06:11.329Z,161.33
2023-02-22T09:07:01.168Z,127.00
2023-02-22T09:08:05.850Z,112.67
2023-02-22T09:08:48.613Z,134.67
2023-02-22T09:09:30.969Z,108.67
2023-02-22T09:10:30.122Z,96.33
2023-02-22T09:11:09.272Z,121.67
2023-02-22T09:12:28.098Z,208.00
2023-02-22T09:13:23.940Z,120.00
2023-02-22T09:14:03.140Z,71.00
2023-02-22T09:14:43.221Z,68.00
2023-02-22T09:15:37.812Z,66.00
2023-02-22T09:16:16.999Z,58.00
2023-02-22T09:17:09.237Z,67.67
2023-02-22T09:17:56.043Z,56.67
2023-02-22T09:18:43.711Z,53.00
2023-02-22T09:19:47.735Z,60.67
2023-02-22T09:21:06.360Z,137.00
2023-02-22T09:21:55.624Z,134.67
2023-02-22T09:22:48.774Z,104.00
2023-02-22T09:23:28.336Z,64.67
2023-02-22T09:24:11.268Z,49.00
2023-02-22T09:24:53.346Z,48.00
2023-02-22T09:29:33.381Z,134.33
2023-02-22T09:30:57.906Z,99.00
2023-02-22T09:32:01.785Z,75.67
2023-02-22T09:33:22.251Z,102.33
2023-02-22T09:35:56.907Z,93.00
2023-02-22T09:36:36.240Z,85.00
2023-02-22T09:37:27.969Z,97.67
2023-02-22T09:38:07.242Z,102.00
2023-02-22T09:38:49.234Z,106.33
2023-02-22T09:39:29.502Z,108.00
2023-02-22T09:40:25.576Z,93.33
2023-02-22T09:41:23.493Z,124.33
2023-02-22T09:42:53.788Z,100.67
2023-02-22T09:44:51.767Z,222.67
2023-02-22T09:45:50.235Z,88.67
2023-02-22T09:49:38.233Z,199.67
2023-02-22T09:51:42.244Z,83.00
2023-02-22T09:54:04.289Z,108.33
2023-02-22T10:02:35.386Z,88.00
2023-02-22T10:03:31.602Z,91.67
2023-02-22T10:04:22.186Z,129.67
2023-02-22T10:05:17.939Z,190.00
2023-02-22T10:06:15.012Z,109.00
2023-02-22T10:07:26.167Z,98.67
2023-02-22T10:09:12.082Z,144.33
2023-02-22T10:10:58.108Z,67.00
2023-02-22T10:12:12.847Z,93.00
2023-02-22T10:13:28.233Z,140.00
2023-02-22T10:14:06.773Z,94.00
2023-02-22T10:15:14.127Z,75.33
2023-02-22T10:16:51.094Z,157.00
2023-02-22T10:18:20.981Z,111.33
2023-02-22T10:19:33.736Z,77.67
2023-02-22T10:20:28.707Z,56.67
2023-02-22T10:21:31.006Z,55.00
2023-02-22T10:23:12.197Z,67.67
2023-02-22T10:24:04.586Z,183.33
2023-02-22T10:24:45.572Z,241.67
2023-02-22T10:25:35.976Z,216.33
2023-02-22T10:26:39.842Z,164.67
2023-02-22T10:27:53.249Z,129.67
2023-02-22T10:29:35.279Z,165.33
2023-02-22T10:30:25.001Z,220.00
2023-02-22T10:32:10.470Z,299.33
2023-02-22T10:33:06.549Z,246.33
2023-02-22T10:34:52.165Z,147.00
2023-02-22T10:36:21.798Z,403.00
2023-02-22T10:37:15.733Z,349.67
2023-02-22T10:39:59.396Z,182.33
2023-02-22T10:41:31.395Z,390.33
2023-02-22T10:42:12.090Z,410.67
2023-02-22T10:42:53.265Z,312.00
2023-02-22T10:43:37.811Z,237.67
2023-02-22T10:45:07.714Z,135.00
2023-02-22T10:46:01.481Z,92.33
2023-02-22T10:46:44.663Z,77.67
2023-02-22T10:47:23.767Z,185.67
2023-02-22T10:48:08.709Z,324.67
2023-02-22T10:48:53.282Z,211.67
2023-02-22T10:51:40.989Z,82.33
2023-02-22T10:52:29.954Z,156.00
2023-02-22T10:53:11.098Z,331.33
2023-02-22T10:54:14.630Z,240.67
2023-02-22T10:57:20.096Z,105.00
2023-02-22T10:58:23.464Z,127.67
2023-02-22T10:59:02.758Z,144.33
2023-02-22T10:59:42.673Z,147.67
2023-02-22T11:01:20.099Z,161.00
2023-02-22T11:02:22.696Z,176.33
2023-02-22T11:03:16.861Z,170.00
2023-02-22T11:04:24.360Z,148.67
2023-02-22T11:05:04.881Z,144.00
2023-02-22T11:05:45.109Z,170.67
2023-02-22T11:06:38.013Z,261.00
2023-02-22T11:07:19.869Z,177.00
2023-02-22T11:08:36.586Z,99.33
2023-02-22T11:09:18.910Z,173.33
2023-02-22T11:10:04.176Z,258.33
2023-02-22T11:10:52.032Z,245.00
2023-02-22T11:11:31.212Z,188.67
2023-02-22T11:12:27.619Z,296.67
2023-02-22T11:13:31.072Z,168.67
2023-02-22T11:16:14.363Z,145.00
2023-02-22T11:20:52.757Z,124.33
2023-02-22T11:21:47.101Z,129.33
2023-02-22T11:22:31.068Z,107.33
2023-02-22T11:23:23.645Z,102.67
2023-02-22T11:25:52.728Z,120.33
2023-02-22T11:28:31.944Z,97.67
2023-02-22T11:30:31.705Z,102.33
2023-02-22T11:31:40.275Z,92.33
2023-02-22T11:32:33.039Z,94.33
2023-02-22T11:33:36.988Z,94.67
2023-02-22T11:36:16.786Z,132.67
2023-02-22T11:37:26.146Z,113.33
2023-02-22T11:38:29.077Z,171.33
2023-02-22T11:43:49.284Z,85.00
2023-02-22T11:45:00.413Z,91.00
2023-02-22T11:46:08.486Z,95.67
2023-02-22T11:48:05.079Z,178.33
2023-02-22T11:48:59.867Z,128.33
2023-02-22T11:50:18.145Z,137.33
2023-02-22T11:51:38.894Z,140.33
2023-02-22T11:56:40.159Z,199.00
2023-02-22T11:58:13.789Z,90.33
2023-02-22T11:59:23.982Z,93.67
2023-02-22T12:00:54.272Z,97.67
2023-02-22T12:04:42.140Z,171.00
2023-02-22T12:06:19.749Z,168.00
2023-02-22T12:07:16.425Z,145.33
2023-02-22T12:08:19.989Z,108.67
2023-02-22T12:10:02.099Z,116.33
2023-02-22T12:12:25.774Z,116.00
2023-02-22T12:13:52.272Z,118.00
2023-02-22T12:15:08.835Z,116.00
2023-02-22T12:16:31.917Z,108.33
2023-02-22T12:20:25.263Z,148.33
2023-02-22T12:22:48.447Z,139.67
2023-02-22T12:24:38.124Z,123.00
2023-02-22T12:25:34.791Z,115.67
2023-02-22T12:27:18.195Z,91.67
2023-02-22T12:28:25.389Z,105.33
2023-02-22T12:36:19.193Z,154.00
2023-02-22T12:37:36.285Z,135.33
2023-02-22T12:38:23.203Z,131.33
2023-02-22T12:39:07.068Z,124.67
2023-02-22T12:45:24.021Z,129.67
2023-02-22T12:49:28.146Z,97.00
2023-02-22T12:50:14.907Z,124.33
2023-02-22T12:51:09.301Z,153.67
2023-02-22T12:52:22.185Z,136.00
2023-02-22T12:58:33.968Z,131.00
2023-02-22T12:59:42.181Z,81.67
2023-02-22T13:00:42.000Z,71.00
2023-02-22T13:01:38.984Z,109.33
2023-02-22T13:06:52.318Z,135.00
2023-02-22T14:00:17.620Z,116.33
2023-02-22T14:03:49.073Z,122.33
2023-02-22T14:09:37.659Z,147.00
2023-02-22T14:10:44.687Z,122.67
2023-02-22T14:12:52.548Z,169.67
2023-02-22T14:15:18.738Z,141.33
2023-02-22T14:16:34.727Z,112.00
2023-02-22T14:21:30.718Z,101.67
2023-02-22T14:22:34.907Z,113.33
2023-02-22T14:23:30.088Z,215.00
2023-02-22T14:24:23.242Z,152.67
2023-02-22T14:25:28.472Z,128.67
2023-02-22T14:26:17.958Z,160.00
2023-02-22T14:30:24.964Z,90.67
2023-02-22T14:31:36.616Z,98.33
2023-02-22T14:34:46.911Z,98.33
2023-02-22T14:38:49.030Z,82.67
2023-02-22T14:41:22.732Z,72.33
2023-02-22T14:43:46.572Z,73.33
2023-02-22T14:44:55.958Z,73.67
2023-02-22T14:48:42.966Z,121.33
2023-02-22T14:49:19.039Z,110.33
2023-02-22T14:49:56.888Z,110.33
2023-02-22T14:56:50.536Z,107.67